sensor_id;sensor_type;location;lat;lon;timestamp;P1;durP1;ratioP1;P2;durP2;ratioP2
77948;SDS011;67146;51.236;-0.336;2023-06-19T00:00:41;32.40;;;18.15;;
77948;SDS011;67146;51.236;-0.336;2023-06-19T00:03:07;33.73;;;16.20;;
77948;SDS011;67146;51.236;-0.336;2023-06-19T00:05:32;34.03;;;16.67;;
77948;SDS011;67146;51.236;-0.336;2023-06-19T00:07:58;32.47;;;18.17;;
77948;SDS011;67146;51.236;-0.336;2023-06-19T00:10:23;31.17;;;15.57;;
77948;SDS011;67146;51.236;-0.336;2023-06-19T00:12:48;33.67;;;16.15;;
77948;SDS011;67146;51.236;-0.336;2023-06-19T00:15:14;36.10;;;17.50;;
77948;SDS011;67146;51.236;-0.336;2023-06-19T00:17:39;36.63;;;17.83;;
77948;SDS011;67146;51.236;-0.336;2023-06-19T00:20:06;37.22;;;16.27;;
77948;SDS011;67146;51.236;-0.336;2023-06-19T00:22:32;34.60;;;16.77;;
77948;SDS011;67146;51.236;-0.336;2023-06-19T00:24:57;39.08;;;17.65;;
77948;SDS011;67146;51.236;-0.336;2023-06-19T00:27:23;37.40;;;17.05;;
77948;SDS011;67146;51.236;-0.336;2023-06-19T00:29:50;35.38;;;17.02;;
77948;SDS011;67146;51.236;-0.336;2023-06-19T00:32:16;35.42;;;17.05;;
77948;SDS011;67146;51.236;-0.336;2023-06-19T00:34:41;34.57;;;16.40;;
77948;SDS011;67146;51.236;-0.336;2023-06-19T00:37:08;34.25;;;16.60;;
77948;SDS011;67146;51.236;-0.336;2023-06-19T00:39:34;31.45;;;15.82;;
77948;SDS011;67146;51.236;-0.336;2023-06-19T00:42:00;33.10;;;15.52;;
77948;SDS011;67146;51.236;-0.336;2023-06-19T00:44:25;33.20;;;13.77;;
77948;SDS011;67146;51.236;-0.336;2023-06-19T00:46:51;30.33;;;15.23;;
77948;SDS011;67146;51.236;-0.336;2023-06-19T00:49:25;28.27;;;13.43;;
77948;SDS011;67146;51.236;-0.336;2023-06-19T00:51:51;31.45;;;14.07;;
77948;SDS011;67146;51.236;-0.336;2023-06-19T00:54:17;28.80;;;13.52;;
77948;SDS011;67146;51.236;-0.336;2023-06-19T00:56:42;30.85;;;14.43;;
77948;SDS011;67146;51.236;-0.336;2023-06-19T00:59:11;31.85;;;14.77;;
77948;SDS011;67146;51.236;-0.336;2023-06-19T01:01:41;30.80;;;14.43;;
77948;SDS011;67146;51.236;-0.336;2023-06-19T01:04:06;31.63;;;16.40;;
77948;SDS011;67146;51.236;-0.336;2023-06-19T01:06:32;33.33;;;15.10;;
77948;SDS011;67146;51.236;-0.336;2023-06-19T01:09:07;28.23;;;13.50;;
77948;SDS011;67146;51.236;-0.336;2023-06-19T01:11:43;30.55;;;14.68;;
77948;SDS011;67146;51.236;-0.336;2023-06-19T01:14:14;29.65;;;14.00;;
77948;SDS011;67146;51.236;-0.336;2023-06-19T01:16:43;34.05;;;14.48;;
77948;SDS011;67146;51.236;-0.336;2023-06-19T01:19:10;31.83;;;13.55;;
77948;SDS011;67146;51.236;-0.336;2023-06-19T01:21:35;32.17;;;14.50;;
77948;SDS011;67146;51.236;-0.336;2023-06-19T01:24:01;32.45;;;13.88;;
77948;SDS011;67146;51.236;-0.336;2023-06-19T01:26:27;35.45;;;14.50;;
77948;SDS011;67146;51.236;-0.336;2023-06-19T01:28:52;30.63;;;13.82;;
77948;SDS011;67146;51.236;-0.336;2023-06-19T01:31:41;32.25;;;15.25;;
77948;SDS011;67146;51.236;-0.336;2023-06-19T01:34:11;32.75;;;14.48;;
77948;SDS011;67146;51.236;-0.336;2023-06-19T01:36:37;35.83;;;14.95;;
77948;SDS011;67146;51.236;-0.336;2023-06-19T01:39:02;36.75;;;14.45;;
77948;SDS011;67146;51.236;-0.336;2023-06-19T01:41:28;31.58;;;13.70;;
77948;SDS011;67146;51.236;-0.336;2023-06-19T01:43:54;35.80;;;14.10;;
77948;SDS011;67146;51.236;-0.336;2023-06-19T01:46:19;30.57;;;13.80;;
77948;SDS011;67146;51.236;-0.336;2023-06-19T01:48:45;31.27;;;13.50;;
77948;SDS011;67146;51.236;-0.336;2023-06-19T01:51:10;33.45;;;13.52;;
77948;SDS011;67146;51.236;-0.336;2023-06-19T01:53:36;30.92;;;13.40;;
77948;SDS011;67146;51.236;-0.336;2023-06-19T01:56:01;27.63;;;11.63;;
77948;SDS011;67146;51.236;-0.336;2023-06-19T01:58:27;31.65;;;13.98;;
77948;SDS011;67146;51.236;-0.336;2023-06-19T02:00:52;31.48;;;13.98;;
77948;SDS011;67146;51.236;-0.336;2023-06-19T02:03:17;32.97;;;14.20;;
77948;SDS011;67146;51.236;-0.336;2023-06-19T02:05:43;29.37;;;12.57;;
77948;SDS011;67146;51.236;-0.336;2023-06-19T02:08:08;31.70;;;14.03;;
77948;SDS011;67146;51.236;-0.336;2023-06-19T02:10:33;32.63;;;14.40;;
77948;SDS011;67146;51.236;-0.336;2023-06-19T02:12:59;29.00;;;12.85;;
77948;SDS011;67146;51.236;-0.336;2023-06-19T02:15:25;40.55;;;13.50;;
77948;SDS011;67146;51.236;-0.336;2023-06-19T02:17:50;36.67;;;15.18;;
77948;SDS011;67146;51.236;-0.336;2023-06-19T02:20:19;33.10;;;14.23;;
77948;SDS011;67146;51.236;-0.336;2023-06-19T02:22:49;33.78;;;13.65;;
77948;SDS011;67146;51.236;-0.336;2023-06-19T02:25:15;32.58;;;13.40;;
77948;SDS011;67146;51.236;-0.336;2023-06-19T02:27:40;34.92;;;13.50;;
77948;SDS011;67146;51.236;-0.336;2023-06-19T02:30:06;35.03;;;13.90;;
77948;SDS011;67146;51.236;-0.336;2023-06-19T02:32:31;34.13;;;13.57;;
77948;SDS011;67146;51.236;-0.336;2023-06-19T02:34:57;30.07;;;12.27;;
77948;SDS011;67146;51.236;-0.336;2023-06-19T02:37:23;29.60;;;14.05;;
77948;SDS011;67146;51.236;-0.336;2023-06-19T02:39:48;28.07;;;12.07;;
77948;SDS011;67146;51.236;-0.336;2023-06-19T02:42:13;32.15;;;13.00;;
77948;SDS011;67146;51.236;-0.336;2023-06-19T02:44:39;26.90;;;11.65;;
77948;SDS011;67146;51.236;-0.336;2023-06-19T02:47:05;30.58;;;12.00;;
77948;SDS011;67146;51.236;-0.336;2023-06-19T02:49:31;32.53;;;13.57;;
77948;SDS011;67146;51.236;-0.336;2023-06-19T02:51:56;33.03;;;12.82;;
77948;SDS011;67146;51.236;-0.336;2023-06-19T02:54:21;31.93;;;12.30;;
77948;SDS011;67146;51.236;-0.336;2023-06-19T02:56:47;28.70;;;11.50;;
77948;SDS011;67146;51.236;-0.336;2023-06-19T02:59:13;29.60;;;11.88;;
77948;SDS011;67146;51.236;-0.336;2023-06-19T03:01:38;26.17;;;10.00;;
77948;SDS011;67146;51.236;-0.336;2023-06-19T03:04:03;29.30;;;11.60;;
77948;SDS011;67146;51.236;-0.336;2023-06-19T03:06:29;28.17;;;11.65;;
77948;SDS011;67146;51.236;-0.336;2023-06-19T03:08:54;25.27;;;10.93;;
77948;SDS011;67146;51.236;-0.336;2023-06-19T03:11:19;32.33;;;11.73;;
77948;SDS011;67146;51.236;-0.336;2023-06-19T03:13:46;26.80;;;10.30;;
77948;SDS011;67146;51.236;-0.336;2023-06-19T03:16:15;26.40;;;9.82;;
77948;SDS011;67146;51.236;-0.336;2023-06-19T03:18:41;23.85;;;9.38;;
77948;SDS011;67146;51.236;-0.336;2023-06-19T03:21:07;24.17;;;9.45;;
77948;SDS011;67146;51.236;-0.336;2023-06-19T03:23:32;25.83;;;10.43;;
77948;SDS011;67146;51.236;-0.336;2023-06-19T03:25:58;26.80;;;10.33;;
77948;SDS011;67146;51.236;-0.336;2023-06-19T03:28:23;27.38;;;10.48;;
77948;SDS011;67146;51.236;-0.336;2023-06-19T03:30:49;30.55;;;11.00;;
77948;SDS011;67146;51.236;-0.336;2023-06-19T03:33:15;26.00;;;10.77;;
77948;SDS011;67146;51.236;-0.336;2023-06-19T03:35:40;31.10;;;12.83;;
77948;SDS011;67146;51.236;-0.336;2023-06-19T03:38:06;26.85;;;10.93;;
77948;SDS011;67146;51.236;-0.336;2023-06-19T03:40:31;25.23;;;11.23;;
77948;SDS011;67146;51.236;-0.336;2023-06-19T03:42:56;28.23;;;10.93;;
77948;SDS011;67146;51.236;-0.336;2023-06-19T03:45:22;24.63;;;10.85;;
77948;SDS011;67146;51.236;-0.336;2023-06-19T03:47:47;24.77;;;9.57;;
77948;SDS011;67146;51.236;-0.336;2023-06-19T03:50:12;22.50;;;9.67;;
77948;SDS011;67146;51.236;-0.336;2023-06-19T03:52:38;24.30;;;10.00;;
77948;SDS011;67146;51.236;-0.336;2023-06-19T03:55:03;26.07;;;9.53;;
77948;SDS011;67146;51.236;-0.336;2023-06-19T03:57:29;26.25;;;10.70;;
77948;SDS011;67146;51.236;-0.336;2023-06-19T03:59:54;27.45;;;11.27;;
77948;SDS011;67146;51.236;-0.336;2023-06-19T04:02:21;26.13;;;11.32;;
77948;SDS011;67146;51.236;-0.336;2023-06-19T04:04:46;27.43;;;11.43;;
77948;SDS011;67146;51.236;-0.336;2023-06-19T04:07:12;25.27;;;11.02;;
77948;SDS011;67146;51.236;-0.336;2023-06-19T04:09:38;28.63;;;13.30;;
77948;SDS011;67146;51.236;-0.336;2023-06-19T04:12:03;27.05;;;11.35;;
77948;SDS011;67146;51.236;-0.336;2023-06-19T04:14:29;27.90;;;12.20;;
77948;SDS011;67146;51.236;-0.336;2023-06-19T04:16:54;28.53;;;11.80;;
77948;SDS011;67146;51.236;-0.336;2023-06-19T04:19:20;27.60;;;11.57;;
77948;SDS011;67146;51.236;-0.336;2023-06-19T04:21:45;30.67;;;12.27;;
77948;SDS011;67146;51.236;-0.336;2023-06-19T04:24:10;25.40;;;11.97;;
77948;SDS011;67146;51.236;-0.336;2023-06-19T04:26:36;28.07;;;12.03;;
77948;SDS011;67146;51.236;-0.336;2023-06-19T04:29:04;27.55;;;12.20;;
77948;SDS011;67146;51.236;-0.336;2023-06-19T04:31:31;28.40;;;12.02;;
77948;SDS011;67146;51.236;-0.336;2023-06-19T04:33:57;28.27;;;12.82;;
77948;SDS011;67146;51.236;-0.336;2023-06-19T04:36:22;31.50;;;13.05;;
77948;SDS011;67146;51.236;-0.336;2023-06-19T04:38:48;30.40;;;12.73;;
77948;SDS011;67146;51.236;-0.336;2023-06-19T04:41:16;26.38;;;11.32;;
77948;SDS011;67146;51.236;-0.336;2023-06-19T04:43:42;31.95;;;13.15;;
77948;SDS011;67146;51.236;-0.336;2023-06-19T04:46:07;23.70;;;11.07;;
77948;SDS011;67146;51.236;-0.336;2023-06-19T04:48:32;27.60;;;11.97;;
77948;SDS011;67146;51.236;-0.336;2023-06-19T04:51:00;24.92;;;11.82;;
77948;SDS011;67146;51.236;-0.336;2023-06-19T04:53:26;26.10;;;10.52;;
77948;SDS011;67146;51.236;-0.336;2023-06-19T04:55:51;25.30;;;11.25;;
77948;SDS011;67146;51.236;-0.336;2023-06-19T04:58:19;24.38;;;11.88;;
77948;SDS011;67146;51.236;-0.336;2023-06-19T05:00:46;26.50;;;10.73;;
77948;SDS011;67146;51.236;-0.336;2023-06-19T05:03:15;24.83;;;11.00;;
77948;SDS011;67146;51.236;-0.336;2023-06-19T05:05:42;22.02;;;10.27;;
77948;SDS011;67146;51.236;-0.336;2023-06-19T05:08:07;21.65;;;10.18;;
77948;SDS011;67146;51.236;-0.336;2023-06-19T05:10:32;22.70;;;10.85;;
77948;SDS011;67146;51.236;-0.336;2023-06-19T05:12:58;23.37;;;12.33;;
77948;SDS011;67146;51.236;-0.336;2023-06-19T05:15:23;23.38;;;11.30;;
77948;SDS011;67146;51.236;-0.336;2023-06-19T05:17:48;19.27;;;10.10;;
77948;SDS011;67146;51.236;-0.336;2023-06-19T05:20:14;20.13;;;10.50;;
77948;SDS011;67146;51.236;-0.336;2023-06-19T05:22:40;22.30;;;10.60;;
77948;SDS011;67146;51.236;-0.336;2023-06-19T05:25:05;19.85;;;10.23;;
77948;SDS011;67146;51.236;-0.336;2023-06-19T05:27:31;18.67;;;8.75;;
77948;SDS011;67146;51.236;-0.336;2023-06-19T05:29:57;16.77;;;9.88;;
77948;SDS011;67146;51.236;-0.336;2023-06-19T05:32:22;13.82;;;8.73;;
77948;SDS011;67146;51.236;-0.336;2023-06-19T05:34:47;16.07;;;9.23;;
77948;SDS011;67146;51.236;-0.336;2023-06-19T05:37:13;15.30;;;8.77;;
77948;SDS011;67146;51.236;-0.336;2023-06-19T05:39:38;16.00;;;8.82;;
77948;SDS011;67146;51.236;-0.336;2023-06-19T05:42:04;17.13;;;10.15;;
77948;SDS011;67146;51.236;-0.336;2023-06-19T05:44:29;16.52;;;8.38;;
77948;SDS011;67146;51.236;-0.336;2023-06-19T05:46:54;14.50;;;7.93;;
77948;SDS011;67146;51.236;-0.336;2023-06-19T05:49:20;13.43;;;7.47;;
77948;SDS011;67146;51.236;-0.336;2023-06-19T05:51:45;14.70;;;7.47;;
77948;SDS011;67146;51.236;-0.336;2023-06-19T05:54:10;13.30;;;7.70;;
77948;SDS011;67146;51.236;-0.336;2023-06-19T05:56:36;14.40;;;9.37;;
77948;SDS011;67146;51.236;-0.336;2023-06-19T05:59:01;12.83;;;7.30;;
77948;SDS011;67146;51.236;-0.336;2023-06-19T06:01:27;14.23;;;7.32;;
77948;SDS011;67146;51.236;-0.336;2023-06-19T06:03:53;13.98;;;7.20;;
77948;SDS011;67146;51.236;-0.336;2023-06-19T06:06:19;12.68;;;7.53;;
77948;SDS011;67146;51.236;-0.336;2023-06-19T06:08:44;12.02;;;6.97;;
77948;SDS011;67146;51.236;-0.336;2023-06-19T06:11:10;14.63;;;6.77;;
77948;SDS011;67146;51.236;-0.336;2023-06-19T06:13:35;13.93;;;8.83;;
77948;SDS011;67146;51.236;-0.336;2023-06-19T06:16:00;12.98;;;7.20;;
77948;SDS011;67146;51.236;-0.336;2023-06-19T06:18:26;12.68;;;6.57;;
77948;SDS011;67146;51.236;-0.336;2023-06-19T06:20:51;11.77;;;6.50;;
77948;SDS011;67146;51.236;-0.336;2023-06-19T06:23:16;11.33;;;6.73;;
77948;SDS011;67146;51.236;-0.336;2023-06-19T06:25:42;10.50;;;5.57;;
77948;SDS011;67146;51.236;-0.336;2023-06-19T06:28:07;11.85;;;6.22;;
77948;SDS011;67146;51.236;-0.336;2023-06-19T06:30:33;11.55;;;6.00;;
77948;SDS011;67146;51.236;-0.336;2023-06-19T06:32:58;9.87;;;5.60;;
77948;SDS011;67146;51.236;-0.336;2023-06-19T06:35:23;11.20;;;5.73;;
77948;SDS011;67146;51.236;-0.336;2023-06-19T06:37:48;11.83;;;5.67;;
77948;SDS011;67146;51.236;-0.336;2023-06-19T06:40:15;10.27;;;5.93;;
77948;SDS011;67146;51.236;-0.336;2023-06-19T06:42:40;10.25;;;7.90;;
77948;SDS011;67146;51.236;-0.336;2023-06-19T06:45:06;11.38;;;6.45;;
77948;SDS011;67146;51.236;-0.336;2023-06-19T06:47:32;11.48;;;5.85;;
77948;SDS011;67146;51.236;-0.336;2023-06-19T06:49:58;10.98;;;6.05;;
77948;SDS011;67146;51.236;-0.336;2023-06-19T06:52:23;11.18;;;6.00;;
77948;SDS011;67146;51.236;-0.336;2023-06-19T06:54:49;13.05;;;6.05;;
77948;SDS011;67146;51.236;-0.336;2023-06-19T06:57:14;10.32;;;6.75;;
77948;SDS011;67146;51.236;-0.336;2023-06-19T06:59:39;9.67;;;5.07;;
77948;SDS011;67146;51.236;-0.336;2023-06-19T07:02:05;10.10;;;5.37;;
77948;SDS011;67146;51.236;-0.336;2023-06-19T07:04:30;10.57;;;4.95;;
77948;SDS011;67146;51.236;-0.336;2023-06-19T07:06:56;12.10;;;5.25;;
77948;SDS011;67146;51.236;-0.336;2023-06-19T07:09:23;10.00;;;4.75;;
77948;SDS011;67146;51.236;-0.336;2023-06-19T07:11:48;8.48;;;4.63;;
77948;SDS011;67146;51.236;-0.336;2023-06-19T07:14:14;10.70;;;6.80;;
77948;SDS011;67146;51.236;-0.336;2023-06-19T07:16:42;11.63;;;5.43;;
77948;SDS011;67146;51.236;-0.336;2023-06-19T07:19:08;10.05;;;5.03;;
77948;SDS011;67146;51.236;-0.336;2023-06-19T07:21:34;10.30;;;5.57;;
77948;SDS011;67146;51.236;-0.336;2023-06-19T07:23:59;8.70;;;5.23;;
77948;SDS011;67146;51.236;-0.336;2023-06-19T07:26:25;9.57;;;4.80;;
77948;SDS011;67146;51.236;-0.336;2023-06-19T07:28:50;9.30;;;5.10;;
77948;SDS011;67146;51.236;-0.336;2023-06-19T07:31:15;8.40;;;4.90;;
77948;SDS011;67146;51.236;-0.336;2023-06-19T07:33:41;10.90;;;4.35;;
77948;SDS011;67146;51.236;-0.336;2023-06-19T07:36:06;8.90;;;5.03;;
77948;SDS011;67146;51.236;-0.336;2023-06-19T07:38:31;8.88;;;4.38;;
77948;SDS011;67146;51.236;-0.336;2023-06-19T07:40:57;9.35;;;4.90;;
77948;SDS011;67146;51.236;-0.336;2023-06-19T07:43:23;7.47;;;5.07;;
77948;SDS011;67146;51.236;-0.336;2023-06-19T07:45:48;8.57;;;4.50;;
77948;SDS011;67146;51.236;-0.336;2023-06-19T07:48:14;11.63;;;4.53;;
77948;SDS011;67146;51.236;-0.336;2023-06-19T07:50:40;8.52;;;4.28;;
77948;SDS011;67146;51.236;-0.336;2023-06-19T07:53:05;8.33;;;3.93;;
77948;SDS011;67146;51.236;-0.336;2023-06-19T07:55:30;6.63;;;3.70;;
77948;SDS011;67146;51.236;-0.336;2023-06-19T07:57:56;7.40;;;3.63;;
77948;SDS011;67146;51.236;-0.336;2023-06-19T08:00:24;8.10;;;3.75;;
77948;SDS011;67146;51.236;-0.336;2023-06-19T08:02:50;9.07;;;4.30;;
77948;SDS011;67146;51.236;-0.336;2023-06-19T08:05:15;8.53;;;3.67;;
77948;SDS011;67146;51.236;-0.336;2023-06-19T08:07:40;8.38;;;4.50;;
77948;SDS011;67146;51.236;-0.336;2023-06-19T08:10:06;7.47;;;4.60;;
77948;SDS011;67146;51.236;-0.336;2023-06-19T08:12:32;7.75;;;4.13;;
77948;SDS011;67146;51.236;-0.336;2023-06-19T08:14:57;10.35;;;5.28;;
77948;SDS011;67146;51.236;-0.336;2023-06-19T08:17:23;8.55;;;4.70;;
77948;SDS011;67146;51.236;-0.336;2023-06-19T08:19:49;9.03;;;3.77;;
77948;SDS011;67146;51.236;-0.336;2023-06-19T08:22:14;8.60;;;4.43;;
77948;SDS011;67146;51.236;-0.336;2023-06-19T08:24:40;9.93;;;5.23;;
77948;SDS011;67146;51.236;-0.336;2023-06-19T08:27:06;8.38;;;3.92;;
77948;SDS011;67146;51.236;-0.336;2023-06-19T08:29:31;8.75;;;3.78;;
77948;SDS011;67146;51.236;-0.336;2023-06-19T08:31:56;8.53;;;3.60;;
77948;SDS011;67146;51.236;-0.336;2023-06-19T08:34:22;7.87;;;4.27;;
77948;SDS011;67146;51.236;-0.336;2023-06-19T08:36:47;7.50;;;3.75;;
77948;SDS011;67146;51.236;-0.336;2023-06-19T08:39:13;8.85;;;4.53;;
77948;SDS011;67146;51.236;-0.336;2023-06-19T08:41:38;7.85;;;4.13;;
77948;SDS011;67146;51.236;-0.336;2023-06-19T08:44:04;8.90;;;4.10;;
77948;SDS011;67146;51.236;-0.336;2023-06-19T08:46:30;8.18;;;3.72;;
77948;SDS011;67146;51.236;-0.336;2023-06-19T08:48:55;8.33;;;4.10;;
77948;SDS011;67146;51.236;-0.336;2023-06-19T08:51:21;11.32;;;4.38;;
77948;SDS011;67146;51.236;-0.336;2023-06-19T08:53:47;14.07;;;4.38;;
77948;SDS011;67146;51.236;-0.336;2023-06-19T08:58:45;9.00;;;4.17;;
77948;SDS011;67146;51.236;-0.336;2023-06-19T09:01:10;8.80;;;4.30;;
77948;SDS011;67146;51.236;-0.336;2023-06-19T09:03:36;8.38;;;4.55;;
77948;SDS011;67146;51.236;-0.336;2023-06-19T09:06:07;9.25;;;3.90;;
77948;SDS011;67146;51.236;-0.336;2023-06-19T09:08:33;8.18;;;4.30;;
77948;SDS011;67146;51.236;-0.336;2023-06-19T09:11:02;10.48;;;4.63;;
77948;SDS011;67146;51.236;-0.336;2023-06-19T09:13:29;8.70;;;4.00;;
77948;SDS011;67146;51.236;-0.336;2023-06-19T09:15:59;6.32;;;3.88;;
77948;SDS011;67146;51.236;-0.336;2023-06-19T09:18:25;7.68;;;4.07;;
77948;SDS011;67146;51.236;-0.336;2023-06-19T09:20:52;8.63;;;4.18;;
77948;SDS011;67146;51.236;-0.336;2023-06-19T09:23:18;8.68;;;3.70;;
77948;SDS011;67146;51.236;-0.336;2023-06-19T09:25:47;6.20;;;3.30;;
77948;SDS011;67146;51.236;-0.336;2023-06-19T09:30:59;8.23;;;4.05;;
77948;SDS011;67146;51.236;-0.336;2023-06-19T09:33:27;8.32;;;4.07;;
77948;SDS011;67146;51.236;-0.336;2023-06-19T09:35:54;9.60;;;3.90;;
77948;SDS011;67146;51.236;-0.336;2023-06-19T09:38:21;8.48;;;3.85;;
77948;SDS011;67146;51.236;-0.336;2023-06-19T09:40:49;8.05;;;4.22;;
77948;SDS011;67146;51.236;-0.336;2023-06-19T09:43:18;9.43;;;3.88;;
77948;SDS011;67146;51.236;-0.336;2023-06-19T09:45:50;7.13;;;4.47;;
77948;SDS011;67146;51.236;-0.336;2023-06-19T09:48:18;9.40;;;4.35;;
77948;SDS011;67146;51.236;-0.336;2023-06-19T09:50:46;7.00;;;3.90;;
77948;SDS011;67146;51.236;-0.336;2023-06-19T09:53:14;8.13;;;5.05;;
77948;SDS011;67146;51.236;-0.336;2023-06-19T09:55:39;9.35;;;4.07;;
77948;SDS011;67146;51.236;-0.336;2023-06-19T09:58:05;7.15;;;4.07;;
77948;SDS011;67146;51.236;-0.336;2023-06-19T10:00:31;8.52;;;4.18;;
77948;SDS011;67146;51.236;-0.336;2023-06-19T10:02:57;7.80;;;3.70;;
77948;SDS011;67146;51.236;-0.336;2023-06-19T10:07:54;7.15;;;3.33;;
77948;SDS011;67146;51.236;-0.336;2023-06-19T10:10:24;7.38;;;3.42;;
77948;SDS011;67146;51.236;-0.336;2023-06-19T10:12:54;9.77;;;4.85;;
77948;SDS011;67146;51.236;-0.336;2023-06-19T10:15:22;6.72;;;3.35;;
77948;SDS011;67146;51.236;-0.336;2023-06-19T10:23:07;8.27;;;5.03;;
77948;SDS011;67146;51.236;-0.336;2023-06-19T10:25:36;6.82;;;2.72;;
77948;SDS011;67146;51.236;-0.336;2023-06-19T10:28:03;7.18;;;3.35;;
77948;SDS011;67146;51.236;-0.336;2023-06-19T10:30:32;6.68;;;3.92;;
77948;SDS011;67146;51.236;-0.336;2023-06-19T10:32:58;6.90;;;3.70;;
77948;SDS011;67146;51.236;-0.336;2023-06-19T10:35:23;10.17;;;5.03;;
77948;SDS011;67146;51.236;-0.336;2023-06-19T10:37:49;7.10;;;3.08;;
77948;SDS011;67146;51.236;-0.336;2023-06-19T10:40:15;7.38;;;3.47;;
77948;SDS011;67146;51.236;-0.336;2023-06-19T10:42:41;6.72;;;2.92;;
77948;SDS011;67146;51.236;-0.336;2023-06-19T10:45:12;6.35;;;2.97;;
77948;SDS011;67146;51.236;-0.336;2023-06-19T10:47:40;6.30;;;3.35;;
77948;SDS011;67146;51.236;-0.336;2023-06-19T10:50:13;7.32;;;4.18;;
77948;SDS011;67146;51.236;-0.336;2023-06-19T10:52:39;7.43;;;3.72;;
77948;SDS011;67146;51.236;-0.336;2023-06-19T10:55:06;7.10;;;3.28;;
77948;SDS011;67146;51.236;-0.336;2023-06-19T10:57:32;8.00;;;3.67;;
77948;SDS011;67146;51.236;-0.336;2023-06-19T10:59:57;7.63;;;3.92;;
77948;SDS011;67146;51.236;-0.336;2023-06-19T11:02:23;7.25;;;3.38;;
77948;SDS011;67146;51.236;-0.336;2023-06-19T11:04:51;7.15;;;3.50;;
77948;SDS011;67146;51.236;-0.336;2023-06-19T11:07:18;6.32;;;3.03;;
77948;SDS011;67146;51.236;-0.336;2023-06-19T11:09:43;7.78;;;3.47;;
77948;SDS011;67146;51.236;-0.336;2023-06-19T11:12:09;6.17;;;2.93;;
77948;SDS011;67146;51.236;-0.336;2023-06-19T11:14:34;7.72;;;4.05;;
77948;SDS011;67146;51.236;-0.336;2023-06-19T11:17:05;9.25;;;3.50;;
77948;SDS011;67146;51.236;-0.336;2023-06-19T11:19:31;7.72;;;2.97;;
77948;SDS011;67146;51.236;-0.336;2023-06-19T11:21:58;6.63;;;2.88;;
77948;SDS011;67146;51.236;-0.336;2023-06-19T11:24:26;8.57;;;4.20;;
77948;SDS011;67146;51.236;-0.336;2023-06-19T11:26:51;7.60;;;2.67;;
77948;SDS011;67146;51.236;-0.336;2023-06-19T11:29:23;7.07;;;3.97;;
77948;SDS011;67146;51.236;-0.336;2023-06-19T11:32:05;5.57;;;2.13;;
77948;SDS011;67146;51.236;-0.336;2023-06-19T11:34:37;6.13;;;2.22;;
77948;SDS011;67146;51.236;-0.336;2023-06-19T11:37:11;6.25;;;2.58;;
77948;SDS011;67146;51.236;-0.336;2023-06-19T11:39:37;6.93;;;2.03;;
77948;SDS011;67146;51.236;-0.336;2023-06-19T11:42:03;6.05;;;2.00;;
77948;SDS011;67146;51.236;-0.336;2023-06-19T11:44:28;8.15;;;3.72;;
77948;SDS011;67146;51.236;-0.336;2023-06-19T11:46:57;6.77;;;2.73;;
77948;SDS011;67146;51.236;-0.336;2023-06-19T11:49:25;7.55;;;3.13;;
77948;SDS011;67146;51.236;-0.336;2023-06-19T11:51:50;6.20;;;2.35;;
77948;SDS011;67146;51.236;-0.336;2023-06-19T11:54:16;7.57;;;2.40;;
77948;SDS011;67146;51.236;-0.336;2023-06-19T11:56:42;7.00;;;2.30;;
77948;SDS011;67146;51.236;-0.336;2023-06-19T11:59:08;5.13;;;2.08;;
77948;SDS011;67146;51.236;-0.336;2023-06-19T12:01:34;10.75;;;3.28;;
77948;SDS011;67146;51.236;-0.336;2023-06-19T12:04:00;6.68;;;2.17;;
77948;SDS011;67146;51.236;-0.336;2023-06-19T12:06:26;6.05;;;2.50;;
77948;SDS011;67146;51.236;-0.336;2023-06-19T12:08:52;6.25;;;3.22;;
77948;SDS011;67146;51.236;-0.336;2023-06-19T12:11:17;7.13;;;2.53;;
77948;SDS011;67146;51.236;-0.336;2023-06-19T12:13:42;5.50;;;2.07;;
77948;SDS011;67146;51.236;-0.336;2023-06-19T12:16:09;7.65;;;2.25;;
77948;SDS011;67146;51.236;-0.336;2023-06-19T12:18:35;6.65;;;2.50;;
77948;SDS011;67146;51.236;-0.336;2023-06-19T12:21:00;5.93;;;1.90;;
77948;SDS011;67146;51.236;-0.336;2023-06-19T12:23:26;6.88;;;2.17;;
77948;SDS011;67146;51.236;-0.336;2023-06-19T12:25:51;7.72;;;2.53;;
77948;SDS011;67146;51.236;-0.336;2023-06-19T12:28:16;5.70;;;2.30;;
77948;SDS011;67146;51.236;-0.336;2023-06-19T12:30:44;6.35;;;2.17;;
77948;SDS011;67146;51.236;-0.336;2023-06-19T12:33:09;6.45;;;2.47;;
77948;SDS011;67146;51.236;-0.336;2023-06-19T12:35:35;6.35;;;2.42;;
77948;SDS011;67146;51.236;-0.336;2023-06-19T12:38:01;5.82;;;2.47;;
77948;SDS011;67146;51.236;-0.336;2023-06-19T12:40:26;6.10;;;1.97;;
77948;SDS011;67146;51.236;-0.336;2023-06-19T12:42:52;6.70;;;2.57;;
77948;SDS011;67146;51.236;-0.336;2023-06-19T12:45:17;9.18;;;2.28;;
77948;SDS011;67146;51.236;-0.336;2023-06-19T12:47:42;5.57;;;1.80;;
77948;SDS011;67146;51.236;-0.336;2023-06-19T12:50:08;7.17;;;2.63;;
77948;SDS011;67146;51.236;-0.336;2023-06-19T12:52:33;8.13;;;2.30;;
77948;SDS011;67146;51.236;-0.336;2023-06-19T12:54:59;7.17;;;3.90;;
77948;SDS011;67146;51.236;-0.336;2023-06-19T12:57:27;7.50;;;2.17;;
77948;SDS011;67146;51.236;-0.336;2023-06-19T12:59:52;6.77;;;2.17;;
77948;SDS011;67146;51.236;-0.336;2023-06-19T13:02:17;6.47;;;2.17;;
77948;SDS011;67146;51.236;-0.336;2023-06-19T13:04:43;5.82;;;2.28;;
77948;SDS011;67146;51.236;-0.336;2023-06-19T13:07:08;5.87;;;3.57;;
77948;SDS011;67146;51.236;-0.336;2023-06-19T13:09:34;6.28;;;2.10;;
77948;SDS011;67146;51.236;-0.336;2023-06-19T13:12:00;6.70;;;2.00;;
77948;SDS011;67146;51.236;-0.336;2023-06-19T13:14:26;7.03;;;2.28;;
77948;SDS011;67146;51.236;-0.336;2023-06-19T13:16:51;5.80;;;2.40;;
77948;SDS011;67146;51.236;-0.336;2023-06-19T13:19:16;7.17;;;2.93;;
77948;SDS011;67146;51.236;-0.336;2023-06-19T13:21:42;7.53;;;2.10;;
77948;SDS011;67146;51.236;-0.336;2023-06-19T13:24:08;6.68;;;3.05;;
77948;SDS011;67146;51.236;-0.336;2023-06-19T13:26:33;7.40;;;1.93;;
77948;SDS011;67146;51.236;-0.336;2023-06-19T13:28:58;5.97;;;1.83;;
77948;SDS011;67146;51.236;-0.336;2023-06-19T13:31:25;7.47;;;2.30;;
77948;SDS011;67146;51.236;-0.336;2023-06-19T13:33:51;6.63;;;2.42;;
77948;SDS011;67146;51.236;-0.336;2023-06-19T13:36:16;6.37;;;2.67;;
77948;SDS011;67146;51.236;-0.336;2023-06-19T13:38:43;7.13;;;2.30;;
77948;SDS011;67146;51.236;-0.336;2023-06-19T13:41:09;7.60;;;2.33;;
77948;SDS011;67146;51.236;-0.336;2023-06-19T13:43:34;8.10;;;1.73;;
77948;SDS011;67146;51.236;-0.336;2023-06-19T13:45:59;7.17;;;2.00;;
77948;SDS011;67146;51.236;-0.336;2023-06-19T13:48:26;6.68;;;1.85;;
77948;SDS011;67146;51.236;-0.336;2023-06-19T13:50:51;7.37;;;2.10;;
77948;SDS011;67146;51.236;-0.336;2023-06-19T13:53:16;6.20;;;1.90;;
77948;SDS011;67146;51.236;-0.336;2023-06-19T13:55:42;5.60;;;1.77;;
77948;SDS011;67146;51.236;-0.336;2023-06-19T13:58:07;9.07;;;2.23;;
77948;SDS011;67146;51.236;-0.336;2023-06-19T14:00:32;5.83;;;2.00;;
77948;SDS011;67146;51.236;-0.336;2023-06-19T14:03:00;7.22;;;2.03;;
77948;SDS011;67146;51.236;-0.336;2023-06-19T14:05:25;6.87;;;1.90;;
77948;SDS011;67146;51.236;-0.336;2023-06-19T14:07:51;6.53;;;1.40;;
77948;SDS011;67146;51.236;-0.336;2023-06-19T14:10:17;5.32;;;1.67;;
77948;SDS011;67146;51.236;-0.336;2023-06-19T14:12:42;5.77;;;1.90;;
77948;SDS011;67146;51.236;-0.336;2023-06-19T14:15:07;6.13;;;2.25;;
77948;SDS011;67146;51.236;-0.336;2023-06-19T14:17:33;6.00;;;1.92;;
77948;SDS011;67146;51.236;-0.336;2023-06-19T14:19:59;6.03;;;1.77;;
77948;SDS011;67146;51.236;-0.336;2023-06-19T14:22:24;6.13;;;1.63;;
77948;SDS011;67146;51.236;-0.336;2023-06-19T14:24:49;7.55;;;2.72;;
77948;SDS011;67146;51.236;-0.336;2023-06-19T14:27:15;6.43;;;1.65;;
77948;SDS011;67146;51.236;-0.336;2023-06-19T14:29:40;6.07;;;1.55;;